Kahului, Hawaii
Current Conditions -  °F | °C
As of 5:54 AM on Thursday 30 Oct 2014 (Local Time) from PHOG Reporting Station
Clear Clear  
Wind Chill: 74°   Ceiling: Unl
Heat Index: 74°   Visibility: 10mi
Dew Point: 65°   Wind: 10mph
Humidity: 73%   Direction: 40°NE
Pressure: 30.05"   Gusts: NA
Location:  20.89°N, 156.46°W
Report Text: PHOG 301554Z 04009KT 10SM CLR 23/18 A3005 RMK AO2 SLP181 T02330183
Loading
Personal Weather Stations






























Interactive Weather Map
Tropical Storm Tracking
New forecast layout! Learn more

10-Day Weather Forecast

Advertisements
Track Severe Weather on mobile